Time;durP1;ratioP1;P1;durP2;ratioP2;P2;SDS_P1;SDS_P2;PMS_P1;PMS_P2;Temp;Humidity;BMP_temperature;BMP_pressure;BME280_temperature;BME280_humidity;BME280_pressure;Samples;Min_cycle;Max_cycle;Signal;HPM_P1;HPM_P2
2023/05/11 00:00:19;;;;;;;6.68;4.38;;;;;;;;;;5073685;28;20096;-67
2023/05/11 00:02:46;;;;;;;8.35;4.53;;;;;;;;;;5091690;28;20051;-67
2023/05/11 00:05:12;;;;;;;9.00;4.72;;;;;;;;;;5090848;28;20036;-67
2023/05/11 00:07:38;;;;;;;6.43;4.22;;;;;;;;;;5073914;28;20553;-67
2023/05/11 00:10:04;;;;;;;8.88;5.63;;;;;;;;;;5092803;28;20046;-67
2023/05/11 00:12:31;;;;;;;7.70;4.65;;;;;;;;;;5088892;28;20040;-67
2023/05/11 00:14:57;;;;;;;8.70;5.07;;;;;;;;;;5053060;28;20139;-67
2023/05/11 00:17:23;;;;;;;10.20;5.40;;;;;;;;;;5091803;28;20395;-66
2023/05/11 00:19:49;;;;;;;7.88;4.95;;;;;;;;;;5070035;28;20040;-67
2023/05/11 00:22:15;;;;;;;11.88;5.63;;;;;;;;;;5091529;28;20074;-67
2023/05/11 00:24:41;;;;;;;10.40;5.63;;;;;;;;;;5072140;28;20036;-68
2023/05/11 00:27:08;;;;;;;11.80;6.07;;;;;;;;;;5074068;28;20155;-67
2023/05/11 00:29:34;;;;;;;7.85;4.97;;;;;;;;;;5091642;28;20074;-67
2023/05/11 00:32:00;;;;;;;7.85;5.18;;;;;;;;;;5092448;28;20140;-67
2023/05/11 00:34:27;;;;;;;9.23;6.13;;;;;;;;;;5076229;28;20052;-67
2023/05/11 00:36:53;;;;;;;8.77;5.65;;;;;;;;;;5072552;28;20047;-67
2023/05/11 00:39:19;;;;;;;8.93;5.53;;;;;;;;;;5056210;28;20475;-67
2023/05/11 00:41:46;;;;;;;9.38;5.60;;;;;;;;;;5071948;28;20063;-67
2023/05/11 00:44:12;;;;;;;8.30;5.25;;;;;;;;;;5072701;28;20044;-67
2023/05/11 00:46:39;;;;;;;8.43;5.72;;;;;;;;;;5090975;28;20103;-67
2023/05/11 00:49:05;;;;;;;13.13;5.70;;;;;;;;;;5071004;28;20047;-67
2023/05/11 00:51:32;;;;;;;11.88;6.45;;;;;;;;;;5091351;28;20039;-67
2023/05/11 00:53:59;;;;;;;9.27;5.85;;;;;;;;;;5072824;28;20082;-67
2023/05/11 00:56:26;;;;;;;12.05;6.65;;;;;;;;;;5090791;28;20048;-67
2023/05/11 00:58:52;;;;;;;9.30;6.40;;;;;;;;;;5071926;28;20062;-67
2023/05/11 01:01:18;;;;;;;10.07;6.43;;;;;;;;;;5071482;28;20122;-67
2023/05/11 01:03:45;;;;;;;9.80;5.90;;;;;;;;;;5068688;28;20047;-67
2023/05/11 01:06:18;;;;;;;8.60;4.97;;;;;;;;;;5089352;28;20043;-67
2023/05/11 01:08:44;;;;;;;8.03;5.57;;;;;;;;;;5094062;28;20039;-67
2023/05/11 01:11:15;;;;;;;12.20;5.40;;;;;;;;;;5057599;28;20039;-67
2023/05/11 01:13:44;;;;;;;11.65;6.25;;;;;;;;;;5063365;28;20036;-67
2023/05/11 01:16:14;;;;;;;6.78;4.75;;;;;;;;;;5079158;28;20363;-67
2023/05/11 01:18:43;;;;;;;8.38;4.97;;;;;;;;;;5092705;28;20059;-67
2023/05/11 01:21:10;;;;;;;6.95;4.40;;;;;;;;;;5093125;28;20196;-65
2023/05/11 01:23:42;;;;;;;9.85;4.72;;;;;;;;;;5088326;28;20071;-67
2023/05/11 01:26:16;;;;;;;7.57;4.13;;;;;;;;;;5057082;28;20054;-67
2023/05/11 01:28:51;;;;;;;8.38;4.50;;;;;;;;;;5076832;27;20048;-67
2023/05/11 01:31:17;;;;;;;9.05;4.10;;;;;;;;;;5066497;28;20277;-67
2023/05/11 01:33:47;;;;;;;9.15;4.60;;;;;;;;;;5087031;28;20144;-67
2023/05/11 01:36:14;;;;;;;8.05;4.40;;;;;;;;;;5068587;28;22078;-67
2023/05/11 01:38:41;;;;;;;7.57;4.63;;;;;;;;;;5069544;28;20047;-67
2023/05/11 01:41:11;;;;;;;16.45;6.15;;;;;;;;;;5069506;28;21228;-67
2023/05/11 01:43:39;;;;;;;9.68;4.00;;;;;;;;;;5074750;28;20043;-67
2023/05/11 01:46:07;;;;;;;7.20;4.70;;;;;;;;;;5074846;28;20044;-66
2023/05/11 01:48:35;;;;;;;12.35;4.65;;;;;;;;;;5100806;28;20039;-67
2023/05/11 01:51:03;;;;;;;8.73;4.30;;;;;;;;;;5092591;28;20066;-67
2023/05/11 01:53:32;;;;;;;8.20;4.60;;;;;;;;;;5072705;28;20040;-67
2023/05/11 01:55:59;;;;;;;9.23;4.38;;;;;;;;;;5069470;28;20043;-67
2023/05/11 01:58:27;;;;;;;7.55;4.72;;;;;;;;;;5068100;28;20135;-67
2023/05/11 02:00:54;;;;;;;9.45;4.88;;;;;;;;;;5066003;28;20040;-67
2023/05/11 02:03:21;;;;;;;12.43;4.63;;;;;;;;;;5068209;28;20055;-67
2023/05/11 02:05:48;;;;;;;12.20;4.78;;;;;;;;;;5067250;28;20054;-67
2023/05/11 02:08:16;;;;;;;9.73;4.90;;;;;;;;;;5086520;28;20044;-67
2023/05/11 02:10:43;;;;;;;11.05;4.90;;;;;;;;;;5087143;28;20085;-67
2023/05/11 02:13:09;;;;;;;12.15;5.07;;;;;;;;;;5074039;28;20087;-67
2023/05/11 02:15:37;;;;;;;12.77;4.38;;;;;;;;;;5053671;28;20047;-67
2023/05/11 02:18:04;;;;;;;14.32;4.60;;;;;;;;;;5069932;28;20075;-67
2023/05/11 02:20:31;;;;;;;22.65;4.18;;;;;;;;;;5050797;28;20119;-67
2023/05/11 02:22:58;;;;;;;16.83;4.65;;;;;;;;;;5063740;28;20052;-67
2023/05/11 02:25:25;;;;;;;7.93;4.15;;;;;;;;;;5067599;28;20044;-67
2023/05/11 02:27:51;;;;;;;18.25;4.80;;;;;;;;;;5068137;28;20162;-67
2023/05/11 02:30:17;;;;;;;39.95;5.40;;;;;;;;;;5064407;28;20044;-67
2023/05/11 02:32:47;;;;;;;36.92;5.07;;;;;;;;;;5086196;28;20680;-66
2023/05/11 02:35:16;;;;;;;39.50;4.72;;;;;;;;;;5048093;28;20051;-67
2023/05/11 02:37:44;;;;;;;8.98;3.95;;;;;;;;;;5087330;28;20040;-68
2023/05/11 02:40:15;;;;;;;18.85;4.07;;;;;;;;;;5085482;28;20403;-67
2023/05/11 02:42:42;;;;;;;34.40;4.28;;;;;;;;;;5085782;28;20040;-67
2023/05/11 02:45:09;;;;;;;30.45;4.53;;;;;;;;;;5068583;28;20120;-67
2023/05/11 02:47:39;;;;;;;47.70;5.18;;;;;;;;;;5088077;28;20055;-67
2023/05/11 02:50:06;;;;;;;38.30;5.00;;;;;;;;;;5066179;28;20142;-67
2023/05/11 02:52:33;;;;;;;17.92;4.32;;;;;;;;;;5059849;28;20186;-67
2023/05/11 02:55:00;;;;;;;29.63;4.97;;;;;;;;;;5092517;28;20032;-67
2023/05/11 02:57:26;;;;;;;36.13;4.82;;;;;;;;;;5093461;28;20055;-67
2023/05/11 02:59:53;;;;;;;35.60;4.88;;;;;;;;;;5086320;28;20116;-67
2023/05/11 03:02:19;;;;;;;35.65;5.25;;;;;;;;;;5066864;28;20047;-67
2023/05/11 03:04:45;;;;;;;26.52;4.43;;;;;;;;;;5067126;28;20047;-67
2023/05/11 03:07:12;;;;;;;32.03;4.50;;;;;;;;;;5087654;28;20070;-67
2023/05/11 03:09:38;;;;;;;17.40;4.03;;;;;;;;;;5067815;28;20036;-67
2023/05/11 03:12:05;;;;;;;40.03;4.90;;;;;;;;;;5085470;28;20083;-67
2023/05/11 03:14:32;;;;;;;47.55;4.32;;;;;;;;;;5066411;28;20397;-67
2023/05/11 03:16:59;;;;;;;24.02;4.00;;;;;;;;;;5066056;28;20055;-67
2023/05/11 03:19:27;;;;;;;23.52;4.47;;;;;;;;;;5086399;28;20042;-67
2023/05/11 03:21:53;;;;;;;34.45;4.35;;;;;;;;;;5068340;28;20079;-67
2023/05/11 03:24:20;;;;;;;13.40;3.78;;;;;;;;;;5067586;28;20135;-67
2023/05/11 03:26:47;;;;;;;16.45;3.90;;;;;;;;;;5066925;28;20055;-67
2023/05/11 03:29:14;;;;;;;26.83;5.20;;;;;;;;;;5086742;28;20510;-67
2023/05/11 03:31:41;;;;;;;12.23;3.85;;;;;;;;;;5064972;28;20047;-67
2023/05/11 03:34:07;;;;;;;16.30;3.78;;;;;;;;;;5066777;28;20059;-67
2023/05/11 03:36:33;;;;;;;24.70;4.35;;;;;;;;;;5064665;28;20135;-67
2023/05/11 03:39:01;;;;;;;7.25;3.40;;;;;;;;;;5088257;28;20037;-67
2023/05/11 03:41:28;;;;;;;21.85;4.13;;;;;;;;;;5067162;28;20079;-67
2023/05/11 03:43:55;;;;;;;19.02;4.20;;;;;;;;;;5052409;28;20055;-67
2023/05/11 03:46:23;;;;;;;7.43;3.28;;;;;;;;;;5069395;28;20234;-67
2023/05/11 03:48:50;;;;;;;8.68;3.60;;;;;;;;;;5065177;28;20483;-67
2023/05/11 03:51:16;;;;;;;12.95;3.95;;;;;;;;;;5067079;28;20127;-67
2023/05/11 03:53:42;;;;;;;9.50;3.47;;;;;;;;;;5066342;28;20071;-67
2023/05/11 03:56:08;;;;;;;7.15;3.33;;;;;;;;;;5067774;28;20047;-67
2023/05/11 03:58:41;;;;;;;17.65;3.97;;;;;;;;;;5069445;28;20043;-67
2023/05/11 04:01:08;;;;;;;12.07;3.42;;;;;;;;;;5064781;28;20179;-67
2023/05/11 04:03:35;;;;;;;10.80;3.47;;;;;;;;;;5070172;28;20055;-67
2023/05/11 04:06:01;;;;;;;5.95;3.38;;;;;;;;;;5089837;28;20040;-67
2023/05/11 04:08:28;;;;;;;10.13;3.08;;;;;;;;;;5084190;28;20586;-67
2023/05/11 04:10:54;;;;;;;15.35;3.75;;;;;;;;;;5085817;28;20094;-67
2023/05/11 04:13:20;;;;;;;18.48;3.30;;;;;;;;;;5086902;28;20080;-67
2023/05/11 04:15:46;;;;;;;19.83;5.07;;;;;;;;;;5068907;28;20048;-67
2023/05/11 04:18:13;;;;;;;18.30;3.60;;;;;;;;;;5069910;28;20040;-67
2023/05/11 04:20:39;;;;;;;18.35;4.35;;;;;;;;;;5068044;28;20048;-67
2023/05/11 04:23:05;;;;;;;6.63;3.60;;;;;;;;;;5066966;28;20147;-67
2023/05/11 04:25:31;;;;;;;9.68;3.60;;;;;;;;;;5067133;28;20120;-67
2023/05/11 04:27:57;;;;;;;13.10;3.38;;;;;;;;;;5086257;28;20092;-67
2023/05/11 04:30:23;;;;;;;9.63;4.03;;;;;;;;;;5092459;28;20302;-67
2023/05/11 04:32:49;;;;;;;5.47;3.50;;;;;;;;;;5064141;28;20368;-67
2023/05/11 04:35:16;;;;;;;7.68;3.58;;;;;;;;;;5062569;28;20049;-67
2023/05/11 04:37:42;;;;;;;5.22;3.10;;;;;;;;;;5063728;28;20435;-67
2023/05/11 04:40:08;;;;;;;9.82;3.22;;;;;;;;;;5084861;28;20417;-66
2023/05/11 04:42:34;;;;;;;7.72;3.55;;;;;;;;;;5076943;28;20086;-66
2023/05/11 04:45:00;;;;;;;6.90;3.20;;;;;;;;;;5082243;28;20040;-67
2023/05/11 04:47:27;;;;;;;7.45;3.60;;;;;;;;;;5081271;28;20143;-67
2023/05/11 04:49:53;;;;;;;8.93;3.88;;;;;;;;;;5085205;28;20478;-67
2023/05/11 04:52:19;;;;;;;8.48;3.33;;;;;;;;;;5083801;28;20488;-67
2023/05/11 04:54:45;;;;;;;7.35;3.70;;;;;;;;;;5071695;28;20132;-67
2023/05/11 04:57:11;;;;;;;6.63;3.55;;;;;;;;;;5070133;28;20403;-66
2023/05/11 04:59:38;;;;;;;5.78;3.47;;;;;;;;;;5073320;28;20055;-67
2023/05/11 05:02:04;;;;;;;5.60;3.53;;;;;;;;;;5075748;28;20558;-67
2023/05/11 05:04:30;;;;;;;8.80;4.00;;;;;;;;;;5073745;28;20090;-66
2023/05/11 05:06:56;;;;;;;11.55;3.95;;;;;;;;;;5074407;28;20477;-67
2023/05/11 05:09:23;;;;;;;8.73;4.18;;;;;;;;;;5077813;28;20038;-67
2023/05/11 05:11:49;;;;;;;8.77;3.70;;;;;;;;;;5079259;28;20055;-67
2023/05/11 05:14:15;;;;;;;5.85;3.70;;;;;;;;;;5078211;28;20559;-67
2023/05/11 05:16:41;;;;;;;8.77;3.90;;;;;;;;;;5075496;28;20135;-67
2023/05/11 05:19:08;;;;;;;9.05;4.60;;;;;;;;;;5077845;28;21038;-67
2023/05/11 05:21:34;;;;;;;8.07;3.97;;;;;;;;;;5085345;28;20053;-68
2023/05/11 05:24:03;;;;;;;8.30;4.40;;;;;;;;;;5080407;28;20036;-66
2023/05/11 05:26:29;;;;;;;8.25;4.57;;;;;;;;;;5080707;28;20127;-67
2023/05/11 05:28:55;;;;;;;6.00;3.67;;;;;;;;;;5077530;28;20395;-67
2023/05/11 05:31:21;;;;;;;6.15;3.55;;;;;;;;;;5078241;28;20044;-67
2023/05/11 05:33:47;;;;;;;4.97;3.20;;;;;;;;;;5077383;27;20058;-67
2023/05/11 05:36:13;;;;;;;4.18;2.30;;;;;;;;;;5077767;28;20449;-67
2023/05/11 05:38:40;;;;;;;4.90;3.20;;;;;;;;;;5095209;27;20588;-67
2023/05/11 05:41:06;;;;;;;5.50;3.22;;;;;;;;;;5077849;28;20498;-67
2023/05/11 05:43:32;;;;;;;4.80;2.80;;;;;;;;;;5099283;27;20080;-67
2023/05/11 05:45:58;;;;;;;5.18;2.75;;;;;;;;;;5096882;27;20062;-67
2023/05/11 05:48:24;;;;;;;5.63;2.63;;;;;;;;;;5096874;28;20048;-67
2023/05/11 05:50:50;;;;;;;5.38;3.30;;;;;;;;;;5077808;28;20043;-68
2023/05/11 05:53:17;;;;;;;5.60;3.25;;;;;;;;;;5076944;28;20070;-67
2023/05/11 05:55:43;;;;;;;6.15;3.50;;;;;;;;;;5073945;28;20185;-67
2023/05/11 05:58:09;;;;;;;5.38;3.33;;;;;;;;;;5076811;27;20051;-67
2023/05/11 06:00:35;;;;;;;5.95;3.53;;;;;;;;;;5075723;28;20047;-67
2023/05/11 06:03:02;;;;;;;5.10;3.47;;;;;;;;;;5076770;28;20056;-67
2023/05/11 06:05:28;;;;;;;5.88;3.08;;;;;;;;;;5096104;27;20077;-67
2023/05/11 06:07:54;;;;;;;4.65;2.35;;;;;;;;;;5093877;28;20054;-67
2023/05/11 06:10:20;;;;;;;3.88;2.22;;;;;;;;;;5097954;27;20031;-67
2023/05/11 06:12:47;;;;;;;3.90;2.22;;;;;;;;;;5074512;28;20051;-67
2023/05/11 06:15:13;;;;;;;3.20;1.98;;;;;;;;;;5076278;28;20068;-68
2023/05/11 06:17:39;;;;;;;3.80;2.33;;;;;;;;;;5095219;28;20044;-67
2023/05/11 06:20:06;;;;;;;4.15;2.65;;;;;;;;;;5073883;28;20100;-67
2023/05/11 06:22:32;;;;;;;4.65;2.33;;;;;;;;;;5094265;27;20042;-67
2023/05/11 06:24:58;;;;;;;4.15;2.22;;;;;;;;;;5080457;28;20032;-67
2023/05/11 06:27:24;;;;;;;4.22;2.60;;;;;;;;;;5076281;28;20078;-67
2023/05/11 06:29:50;;;;;;;4.03;2.63;;;;;;;;;;5075088;28;20040;-67
2023/05/11 06:32:16;;;;;;;4.20;2.13;;;;;;;;;;5096883;27;20059;-67
2023/05/11 06:34:43;;;;;;;3.72;1.98;;;;;;;;;;5073285;28;20051;-67
2023/05/11 06:37:09;;;;;;;4.30;2.50;;;;;;;;;;5097732;28;20170;-67
2023/05/11 06:39:36;;;;;;;5.95;2.63;;;;;;;;;;5079054;28;20048;-67
2023/05/11 06:42:03;;;;;;;4.20;2.58;;;;;;;;;;5076482;28;20345;-67
2023/05/11 06:44:30;;;;;;;4.07;2.60;;;;;;;;;;5076799;28;20143;-67
2023/05/11 06:46:56;;;;;;;6.15;2.60;;;;;;;;;;5061677;28;20467;-67
2023/05/11 06:49:22;;;;;;;3.38;2.20;;;;;;;;;;5074180;28;20066;-67
2023/05/11 06:51:48;;;;;;;4.18;2.80;;;;;;;;;;5082206;28;20056;-67
2023/05/11 06:54:14;;;;;;;5.28;3.03;;;;;;;;;;5070900;28;20067;-67
2023/05/11 06:56:40;;;;;;;4.10;2.50;;;;;;;;;;5078672;28;20047;-67
2023/05/11 06:59:06;;;;;;;4.43;3.00;;;;;;;;;;5094981;27;20049;-68
2023/05/11 07:01:33;;;;;;;5.55;3.00;;;;;;;;;;5094616;27;20043;-67
2023/05/11 07:03:59;;;;;;;5.03;3.22;;;;;;;;;;5094679;27;20100;-77
2023/05/11 07:06:26;;;;;;;4.72;3.05;;;;;;;;;;5071945;28;20047;-67
2023/05/11 07:08:52;;;;;;;4.80;2.88;;;;;;;;;;5092777;28;20070;-67
2023/05/11 07:11:18;;;;;;;6.70;4.78;;;;;;;;;;5095927;28;20043;-67
2023/05/11 07:13:44;;;;;;;7.93;5.32;;;;;;;;;;5070648;27;20387;-67
2023/05/11 07:16:10;;;;;;;9.73;6.05;;;;;;;;;;5077779;28;20039;-67
2023/05/11 07:18:36;;;;;;;9.27;6.28;;;;;;;;;;5097883;28;20051;-66
2023/05/11 07:21:03;;;;;;;10.68;6.10;;;;;;;;;;5095341;28;20040;-67
2023/05/11 07:23:29;;;;;;;11.15;6.93;;;;;;;;;;5096085;27;20580;-70
2023/05/11 07:25:56;;;;;;;10.13;7.25;;;;;;;;;;5076735;28;20055;-67
2023/05/11 07:28:23;;;;;;;11.90;7.75;;;;;;;;;;5074981;28;20150;-66
2023/05/11 07:30:49;;;;;;;11.50;7.30;;;;;;;;;;5072482;28;20039;-66
2023/05/11 07:33:15;;;;;;;12.77;8.02;;;;;;;;;;5075796;28;20158;-66
2023/05/11 07:35:41;;;;;;;10.98;6.88;;;;;;;;;;5077223;28;20055;-66
2023/05/11 07:38:10;;;;;;;12.32;7.35;;;;;;;;;;5094107;28;20048;-66
2023/05/11 07:40:36;;;;;;;11.10;7.10;;;;;;;;;;5077531;28;20161;-65
2023/05/11 07:43:03;;;;;;;11.63;7.80;;;;;;;;;;5078603;28;20096;-66
2023/05/11 07:45:29;;;;;;;12.80;8.07;;;;;;;;;;5079341;28;20390;-66
2023/05/11 07:47:55;;;;;;;11.60;7.80;;;;;;;;;;5081281;28;20044;-66
2023/05/11 07:50:21;;;;;;;14.00;8.43;;;;;;;;;;5075761;28;20098;-66
2023/05/11 07:52:47;;;;;;;12.73;7.80;;;;;;;;;;5094766;28;20040;-66
2023/05/11 07:55:13;;;;;;;13.48;9.00;;;;;;;;;;5095977;28;20048;-66
2023/05/11 07:57:40;;;;;;;12.10;7.68;;;;;;;;;;5094041;28;20082;-66
2023/05/11 08:00:08;;;;;;;14.70;8.43;;;;;;;;;;5076973;28;20474;-66
2023/05/11 08:02:34;;;;;;;14.30;9.15;;;;;;;;;;5073569;28;20492;-66
2023/05/11 08:05:00;;;;;;;13.52;8.68;;;;;;;;;;5078394;28;20067;-66
2023/05/11 08:07:26;;;;;;;15.45;8.50;;;;;;;;;;5074845;28;20188;-66
2023/05/11 08:09:53;;;;;;;14.75;8.15;;;;;;;;;;5095774;28;20074;-66
2023/05/11 08:12:19;;;;;;;15.30;9.15;;;;;;;;;;5092786;28;20131;-66
2023/05/11 08:14:45;;;;;;;12.30;7.93;;;;;;;;;;5098622;28;20083;-66
2023/05/11 08:17:11;;;;;;;15.85;8.38;;;;;;;;;;5080198;28;20371;-66
2023/05/11 08:19:37;;;;;;;16.98;10.02;;;;;;;;;;5080553;28;20043;-65
2023/05/11 08:22:04;;;;;;;15.45;8.27;;;;;;;;;;5064762;28;20142;-66
2023/05/11 08:24:30;;;;;;;14.52;8.23;;;;;;;;;;5078427;28;20384;-67
2023/05/11 08:26:56;;;;;;;12.48;8.20;;;;;;;;;;5073949;27;20043;-66
2023/05/11 08:29:23;;;;;;;14.45;8.60;;;;;;;;;;5098612;28;20092;-66
2023/05/11 08:31:49;;;;;;;15.05;8.63;;;;;;;;;;5082118;28;20056;-65
2023/05/11 08:34:15;;;;;;;20.35;9.43;;;;;;;;;;5097943;28;20712;-65
2023/05/11 08:36:41;;;;;;;15.43;8.40;;;;;;;;;;5097790;28;20118;-65
2023/05/11 08:39:08;;;;;;;18.23;9.15;;;;;;;;;;5097552;28;20376;-65
2023/05/11 08:41:34;;;;;;;18.77;10.13;;;;;;;;;;5100150;28;20402;-65
2023/05/11 08:44:01;;;;;;;20.50;10.48;;;;;;;;;;5099398;28;20105;-66
2023/05/11 08:46:29;;;;;;;19.30;10.18;;;;;;;;;;5083373;28;20074;-66
2023/05/11 08:48:55;;;;;;;16.60;9.23;;;;;;;;;;5083142;28;20063;-66
2023/05/11 08:51:22;;;;;;;19.00;10.25;;;;;;;;;;5087439;28;20482;-66
2023/05/11 08:53:48;;;;;;;20.45;9.93;;;;;;;;;;5081772;28;20055;-65
2023/05/11 08:56:16;;;;;;;17.20;9.85;;;;;;;;;;5082421;28;20067;-66
2023/05/11 08:58:42;;;;;;;18.02;8.80;;;;;;;;;;5081515;28;20089;-66
2023/05/11 09:01:11;;;;;;;18.90;10.57;;;;;;;;;;5095947;28;20070;-66
2023/05/11 09:03:38;;;;;;;20.17;11.02;;;;;;;;;;5079228;28;20067;-66
2023/05/11 09:06:06;;;;;;;17.80;9.57;;;;;;;;;;5098022;28;20410;-66
2023/05/11 09:08:35;;;;;;;14.20;8.55;;;;;;;;;;5082863;28;20062;-66
2023/05/11 09:11:01;;;;;;;11.75;7.45;;;;;;;;;;5083174;28;20116;-67
2023/05/11 09:13:28;;;;;;;11.07;7.80;;;;;;;;;;5082444;28;20032;-65
2023/05/11 09:15:55;;;;;;;9.32;6.90;;;;;;;;;;5080272;28;20054;-66
2023/05/11 09:18:21;;;;;;;10.63;6.88;;;;;;;;;;5081032;28;20508;-71
2023/05/11 09:20:50;;;;;;;6.88;5.32;;;;;;;;;;5081336;28;20036;-65
2023/05/11 09:23:17;;;;;;;7.43;5.70;;;;;;;;;;5093772;28;20077;-64
2023/05/11 09:25:43;;;;;;;9.05;6.72;;;;;;;;;;5079848;28;20048;-65
2023/05/11 09:28:15;;;;;;;8.07;6.05;;;;;;;;;;5096072;28;20044;-65
2023/05/11 09:30:43;;;;;;;6.88;5.38;;;;;;;;;;5095995;28;20042;-65
2023/05/11 09:33:09;;;;;;;8.25;5.60;;;;;;;;;;5096899;27;20059;-65
2023/05/11 09:35:35;;;;;;;7.78;6.00;;;;;;;;;;5095536;28;20047;-65
2023/05/11 09:38:08;;;;;;;7.30;5.72;;;;;;;;;;5095995;28;20066;-65
2023/05/11 09:40:36;;;;;;;9.80;7.25;;;;;;;;;;5076464;27;20863;-65
2023/05/11 09:43:17;;;;;;;7.88;5.78;;;;;;;;;;5077237;28;20096;-64
2023/05/11 09:45:44;;;;;;;8.80;5.85;;;;;;;;;;5079869;27;20051;-65
2023/05/11 09:48:26;;;;;;;7.60;6.03;;;;;;;;;;5079176;28;20048;-65
2023/05/11 09:51:01;;;;;;;8.18;6.03;;;;;;;;;;5097197;27;20040;-65
2023/05/11 09:53:34;;;;;;;8.27;5.70;;;;;;;;;;5097043;27;20163;-65
2023/05/11 09:56:00;;;;;;;8.77;6.45;;;;;;;;;;5078662;28;20166;-65
2023/05/11 09:58:26;;;;;;;8.60;6.00;;;;;;;;;;5098215;28;20474;-65
2023/05/11 10:00:53;;;;;;;7.32;5.55;;;;;;;;;;5081192;28;20078;-64
2023/05/11 10:03:20;;;;;;;7.63;6.03;;;;;;;;;;5079482;28;20067;-65
2023/05/11 10:05:56;;;;;;;9.65;6.22;;;;;;;;;;5098925;28;20040;-65
2023/05/11 10:08:28;;;;;;;8.32;6.10;;;;;;;;;;5079277;28;20052;-65
2023/05/11 10:10:55;;;;;;;7.88;6.20;;;;;;;;;;5098742;28;20047;-65
2023/05/11 10:13:23;;;;;;;7.68;5.70;;;;;;;;;;5081220;28;20072;-65
2023/05/11 10:15:51;;;;;;;9.52;6.20;;;;;;;;;;5080456;28;20108;-65
2023/05/11 10:18:17;;;;;;;11.60;6.03;;;;;;;;;;5080949;28;20047;-65
2023/05/11 10:20:44;;;;;;;6.93;4.85;;;;;;;;;;5078106;28;20245;-65
2023/05/11 10:23:11;;;;;;;7.63;5.82;;;;;;;;;;5079388;28;20495;-65
2023/05/11 10:25:38;;;;;;;9.00;6.25;;;;;;;;;;5098936;28;20039;-66
2023/05/11 10:28:05;;;;;;;8.15;6.28;;;;;;;;;;5079458;28;20035;-65
2023/05/11 10:30:33;;;;;;;6.80;5.80;;;;;;;;;;5097626;28;20058;-65
2023/05/11 10:33:00;;;;;;;7.07;5.38;;;;;;;;;;5097135;28;20521;-65
2023/05/11 10:35:27;;;;;;;6.95;5.20;;;;;;;;;;5081407;27;20096;-66
2023/05/11 10:37:53;;;;;;;8.05;4.45;;;;;;;;;;5093576;28;20036;-65
2023/05/11 10:40:20;;;;;;;6.85;4.60;;;;;;;;;;5093847;27;20054;-65
2023/05/11 10:42:46;;;;;;;7.63;4.53;;;;;;;;;;5078695;28;20040;-66
2023/05/11 10:45:12;;;;;;;6.30;4.82;;;;;;;;;;5096398;28;20819;-66
2023/05/11 10:47:38;;;;;;;7.75;4.72;;;;;;;;;;5076710;28;20044;-65
2023/05/11 10:50:15;;;;;;;7.65;4.50;;;;;;;;;;5090595;27;20059;-65
2023/05/11 10:53:00;;;;;;;6.47;4.80;;;;;;;;;;5090315;27;20408;-67
2023/05/11 10:55:44;;;;;;;8.52;4.68;;;;;;;;;;5090433;27;20119;-66
2023/05/11 10:58:29;;;;;;;7.30;5.10;;;;;;;;;;5095960;28;20039;-66
2023/05/11 11:01:14;;;;;;;6.40;5.13;;;;;;;;;;5092164;28;20039;-66
2023/05/11 11:03:40;;;;;;;6.75;5.32;;;;;;;;;;5095461;28;20047;-66
2023/05/11 11:06:21;;;;;;;7.68;5.07;;;;;;;;;;5095692;28;20469;-65
2023/05/11 11:08:57;;;;;;;6.50;5.20;;;;;;;;;;5097437;28;20112;-66
2023/05/11 11:11:28;;;;;;;7.00;5.50;;;;;;;;;;5100087;28;20514;-66
2023/05/11 11:13:57;;;;;;;8.88;5.05;;;;;;;;;;5076138;28;20035;-65
2023/05/11 11:16:24;;;;;;;7.53;4.93;;;;;;;;;;5094045;27;20060;-66
2023/05/11 11:18:51;;;;;;;5.88;4.32;;;;;;;;;;5074468;28;20044;-65
2023/05/11 11:21:36;;;;;;;8.50;4.85;;;;;;;;;;5093903;28;20486;-66
2023/05/11 11:24:02;;;;;;;5.88;4.30;;;;;;;;;;5093104;28;20044;-64
2023/05/11 11:26:47;;;;;;;9.57;4.70;;;;;;;;;;5075247;28;20044;-64
2023/05/11 11:29:14;;;;;;;8.00;4.78;;;;;;;;;;5091347;28;20057;-65
2023/05/11 11:31:40;;;;;;;9.50;4.32;;;;;;;;;;5073011;28;20495;-66
2023/05/11 11:34:26;;;;;;;6.50;4.63;;;;;;;;;;5090950;28;20115;-65
2023/05/11 11:37:00;;;;;;;7.45;5.65;;;;;;;;;;5088535;27;20419;-65
2023/05/11 11:39:29;;;;;;;6.68;4.68;;;;;;;;;;5073884;28;20048;-65
2023/05/11 11:42:02;;;;;;;7.35;5.10;;;;;;;;;;5057348;28;20506;-66
2023/05/11 11:44:28;;;;;;;8.15;5.65;;;;;;;;;;5072247;28;20082;-66
2023/05/11 11:47:15;;;;;;;5.43;4.32;;;;;;;;;;5072929;28;20510;-66
2023/05/11 11:49:42;;;;;;;8.15;5.22;;;;;;;;;;5090790;28;20367;-66
2023/05/11 11:52:12;;;;;;;6.90;4.47;;;;;;;;;;5073022;27;20093;-65
2023/05/11 11:54:39;;;;;;;7.32;5.10;;;;;;;;;;5100213;27;20353;-65
2023/05/11 11:57:25;;;;;;;7.93;5.68;;;;;;;;;;5060132;28;20488;-66
2023/05/11 11:59:52;;;;;;;7.22;6.10;;;;;;;;;;5075199;28;20127;-66
2023/05/11 12:02:18;;;;;;;7.35;5.75;;;;;;;;;;5099652;27;20231;-66
2023/05/11 12:04:50;;;;;;;6.78;5.72;;;;;;;;;;5074636;27;20071;-65
2023/05/11 12:07:19;;;;;;;7.32;6.05;;;;;;;;;;5076032;28;20048;-66
2023/05/11 12:09:46;;;;;;;6.55;5.25;;;;;;;;;;5096785;27;20039;-65
2023/05/11 12:12:12;;;;;;;8.20;6.47;;;;;;;;;;5097740;27;20028;-66
2023/05/11 12:14:43;;;;;;;9.80;6.97;;;;;;;;;;5082771;28;20043;-65
2023/05/11 12:17:14;;;;;;;9.32;7.15;;;;;;;;;;5094334;28;20044;-65
2023/05/11 12:19:41;;;;;;;8.07;6.65;;;;;;;;;;5081203;28;20050;-65
2023/05/11 12:22:09;;;;;;;6.97;5.95;;;;;;;;;;5098139;28;20047;-65
2023/05/11 12:24:37;;;;;;;8.38;5.25;;;;;;;;;;5076946;28;20044;-66
2023/05/11 12:27:03;;;;;;;6.40;4.90;;;;;;;;;;5076909;27;20136;-66
2023/05/11 12:29:30;;;;;;;5.65;4.60;;;;;;;;;;5095608;28;20036;-65
2023/05/11 12:31:57;;;;;;;5.93;4.22;;;;;;;;;;5092435;28;20150;-66
2023/05/11 12:34:23;;;;;;;6.15;4.63;;;;;;;;;;5073438;27;20040;-66
2023/05/11 12:36:50;;;;;;;6.40;3.80;;;;;;;;;;5075113;28;20043;-65
2023/05/11 12:39:17;;;;;;;4.53;3.22;;;;;;;;;;5094789;28;20043;-65
2023/05/11 12:41:44;;;;;;;5.18;3.38;;;;;;;;;;5091074;27;20177;-65
2023/05/11 12:44:11;;;;;;;4.57;3.28;;;;;;;;;;5090378;28;20040;-65
2023/05/11 12:46:37;;;;;;;5.10;3.10;;;;;;;;;;5076282;28;20050;-76
2023/05/11 12:49:04;;;;;;;4.82;3.38;;;;;;;;;;5078528;28;20496;-66
2023/05/11 12:51:46;;;;;;;6.47;3.80;;;;;;;;;;5095399;28;20055;-66
2023/05/11 12:54:23;;;;;;;6.70;3.90;;;;;;;;;;5098200;27;20506;-65
2023/05/11 12:56:49;;;;;;;5.60;3.70;;;;;;;;;;5096595;28;20466;-66
2023/05/11 12:59:23;;;;;;;5.40;3.90;;;;;;;;;;5099302;28;20061;-65
2023/05/11 13:01:49;;;;;;;5.68;4.20;;;;;;;;;;5097352;28;22028;-65
2023/05/11 13:04:16;;;;;;;6.30;4.50;;;;;;;;;;5095929;28;20039;-65
2023/05/11 13:06:44;;;;;;;6.70;5.15;;;;;;;;;;5077957;28;20395;-65
2023/05/11 13:09:11;;;;;;;8.80;4.57;;;;;;;;;;5076121;28;20043;-65
2023/05/11 13:11:37;;;;;;;5.30;4.00;;;;;;;;;;5098778;28;20560;-65
2023/05/11 13:14:14;;;;;;;5.75;3.83;;;;;;;;;;5080863;28;20266;-66
2023/05/11 13:16:40;;;;;;;6.05;3.97;;;;;;;;;;5102973;28;20071;-64
2023/05/11 13:19:07;;;;;;;5.93;4.00;;;;;;;;;;5101656;27;20051;-65
2023/05/11 13:21:34;;;;;;;6.20;3.97;;;;;;;;;;5081035;28;20055;-65
2023/05/11 13:24:02;;;;;;;6.68;3.80;;;;;;;;;;5068142;28;20056;-65
2023/05/11 13:26:30;;;;;;;6.28;4.07;;;;;;;;;;5078683;28;20056;-65
2023/05/11 13:28:56;;;;;;;5.03;3.58;;;;;;;;;;5076394;28;20044;-65
2023/05/11 13:31:22;;;;;;;5.43;3.95;;;;;;;;;;5098289;28;20039;-65
2023/05/11 13:33:50;;;;;;;6.72;4.07;;;;;;;;;;5076805;28;20137;-65
2023/05/11 13:36:17;;;;;;;6.00;3.97;;;;;;;;;;5094899;28;20506;-65
2023/05/11 13:38:43;;;;;;;6.40;4.20;;;;;;;;;;5092551;28;20048;-65
2023/05/11 13:41:09;;;;;;;7.65;4.47;;;;;;;;;;5094528;28;20497;-65
2023/05/11 13:43:36;;;;;;;7.22;4.25;;;;;;;;;;5074424;28;20514;-65
2023/05/11 13:46:03;;;;;;;5.28;3.78;;;;;;;;;;5093383;28;20109;-65
2023/05/11 13:48:30;;;;;;;5.05;3.92;;;;;;;;;;5075833;28;20055;-67
2023/05/11 13:50:56;;;;;;;6.00;4.80;;;;;;;;;;5076869;27;20040;-65
2023/05/11 13:53:22;;;;;;;4.50;2.70;;;;;;;;;;5097371;27;20538;-65
2023/05/11 13:55:49;;;;;;;5.15;2.95;;;;;;;;;;5099235;27;20399;-65
2023/05/11 13:58:16;;;;;;;4.32;2.70;;;;;;;;;;5096449;28;20040;-65
2023/05/11 14:00:43;;;;;;;7.65;3.08;;;;;;;;;;5073047;28;20163;-65
2023/05/11 14:03:09;;;;;;;11.57;3.10;;;;;;;;;;5099766;27;20168;-65
2023/05/11 14:05:35;;;;;;;5.43;3.58;;;;;;;;;;5094845;27;20805;-65
2023/05/11 14:08:02;;;;;;;10.52;4.57;;;;;;;;;;5095128;27;20186;-65
2023/05/11 14:10:28;;;;;;;6.65;3.78;;;;;;;;;;5077862;27;20089;-65
2023/05/11 14:12:54;;;;;;;16.80;4.30;;;;;;;;;;5079310;28;20048;-65
2023/05/11 14:15:20;;;;;;;9.38;3.88;;;;;;;;;;5092826;27;20077;-65
2023/05/11 14:17:47;;;;;;;10.88;3.55;;;;;;;;;;5094389;28;20040;-65
2023/05/11 14:20:13;;;;;;;5.32;3.50;;;;;;;;;;5093909;27;20066;-65
2023/05/11 14:22:40;;;;;;;5.35;3.70;;;;;;;;;;5096316;27;20042;-64
2023/05/11 14:25:06;;;;;;;6.68;4.93;;;;;;;;;;5097024;27;20067;-65
2023/05/11 14:27:32;;;;;;;5.57;3.80;;;;;;;;;;5078526;28;20051;-65
2023/05/11 14:29:59;;;;;;;4.47;3.40;;;;;;;;;;5093554;27;20067;-65
2023/05/11 14:32:25;;;;;;;6.40;3.50;;;;;;;;;;5095193;28;20055;-70
2023/05/11 14:34:52;;;;;;;3.97;2.88;;;;;;;;;;5073660;28;20055;-70
2023/05/11 14:37:18;;;;;;;4.47;3.22;;;;;;;;;;5078986;27;20044;-70
2023/05/11 14:39:44;;;;;;;4.63;3.05;;;;;;;;;;5076965;28;20494;-70